McDonald, Kansas
Current Conditions -  °F | °C
As of 5:15 AM on Saturday 22 Nov 2014 (Local Time) from KSYF Reporting Station
Clear Clear  
Wind Chill: 18°   Ceiling: Unl
Heat Index: 28°   Visibility: 10mi
Dew Point: 18°   Wind: 10mph
Humidity: 66%   Direction: 220°SW
Pressure: 29.87"   Gusts: NA
Location:  39.79°N, 101.38°W
Report Text: KSYF 221115Z AUTO 22009KT 10SM CLR M02/M08 A2987 RMK AO2 T10251080
Loading
Personal Weather Stations






























Interactive Weather Map New forecast layout! Learn more

10-Day Weather Forecast

Advertisements
Track Severe Weather on mobile